createdAt,value
2019-05-23T00:01:52.337Z,4.00
2019-05-23T00:02:52.309Z,4.00
2019-05-23T00:03:52.315Z,4.00
2019-05-23T00:04:52.277Z,4.00
2019-05-23T00:05:52.248Z,4.00
2019-05-23T00:06:52.227Z,4.00
2019-05-23T00:07:52.215Z,4.00
2019-05-23T00:08:52.189Z,4.00
2019-05-23T00:09:52.167Z,4.00
2019-05-23T00:10:52.148Z,4.00
2019-05-23T00:11:52.129Z,4.00
2019-05-23T00:12:52.104Z,4.00
2019-05-23T00:13:52.089Z,4.00
2019-05-23T00:14:52.066Z,4.00
2019-05-23T00:15:52.043Z,4.00
2019-05-23T00:17:25.232Z,4.00
2019-05-23T00:17:52.006Z,4.00
2019-05-23T00:18:51.982Z,4.00
2019-05-23T00:19:51.961Z,4.00
2019-05-23T00:20:51.955Z,4.00
2019-05-23T00:21:51.925Z,4.00
2019-05-23T00:22:51.900Z,4.00
2019-05-23T00:23:51.879Z,4.00
2019-05-23T00:24:51.871Z,4.00
2019-05-23T00:25:51.842Z,4.00
2019-05-23T00:26:51.821Z,4.00
2019-05-23T00:27:51.796Z,4.00
2019-05-23T00:29:07.543Z,4.00
2019-05-23T00:29:51.757Z,4.00
2019-05-23T00:30:51.740Z,4.00
2019-05-23T00:31:51.715Z,4.00
2019-05-23T00:32:51.695Z,4.00
2019-05-23T00:33:51.681Z,4.00
2019-05-23T00:34:51.662Z,4.00
2019-05-23T00:35:51.637Z,4.00
2019-05-23T00:36:51.761Z,4.00
2019-05-23T00:37:51.591Z,4.00
2019-05-23T00:38:51.574Z,4.00
2019-05-23T00:39:51.560Z,4.00
2019-05-23T00:40:51.529Z,4.00
2019-05-23T00:41:51.523Z,4.00
2019-05-23T00:42:51.504Z,4.00
2019-05-23T00:43:51.469Z,4.00
2019-05-23T00:44:51.447Z,4.00
2019-05-23T00:45:51.427Z,4.00
2019-05-23T00:46:51.409Z,4.00
2019-05-23T00:47:51.390Z,4.00
2019-05-23T00:48:51.372Z,4.00
2019-05-23T00:49:51.352Z,4.00
2019-05-23T00:50:51.323Z,4.00
2019-05-23T00:51:51.301Z,4.00
2019-05-23T00:52:51.282Z,4.00
2019-05-23T00:53:51.263Z,4.00
2019-05-23T00:54:51.245Z,4.00
2019-05-23T00:55:51.222Z,4.00
2019-05-23T00:56:51.197Z,4.00
2019-05-23T00:57:51.178Z,4.00
2019-05-23T00:58:51.163Z,4.00
2019-05-23T00:59:51.135Z,4.00
2019-05-23T01:00:51.439Z,4.00
2019-05-23T01:01:51.097Z,4.00
2019-05-23T01:02:51.075Z,4.00
2019-05-23T01:03:51.052Z,4.00
2019-05-23T01:04:51.033Z,4.00
2019-05-23T01:05:51.012Z,4.00
2019-05-23T01:06:50.996Z,4.00
2019-05-23T01:07:50.979Z,4.00
2019-05-23T01:08:50.950Z,4.00
2019-05-23T01:09:50.938Z,4.00
2019-05-23T01:10:50.910Z,4.00
2019-05-23T01:11:50.887Z,4.00
2019-05-23T01:12:50.920Z,4.00
2019-05-23T01:13:50.849Z,4.00
2019-05-23T01:14:50.855Z,4.00
2019-05-23T01:15:50.806Z,4.00
2019-05-23T01:16:50.788Z,4.00
2019-05-23T01:17:50.762Z,4.00
2019-05-23T01:18:50.796Z,4.00
2019-05-23T01:19:50.726Z,4.00
2019-05-23T01:20:50.700Z,4.00
2019-05-23T01:21:50.693Z,4.00
2019-05-23T01:22:50.663Z,4.00
2019-05-23T01:23:50.649Z,4.00
2019-05-23T01:24:50.615Z,4.00
2019-05-23T01:25:50.606Z,4.00
2019-05-23T01:26:50.578Z,4.00
2019-05-23T01:27:50.558Z,4.00
2019-05-23T01:28:50.532Z,4.00
2019-05-23T01:29:50.633Z,4.00
2019-05-23T01:30:50.493Z,4.00
2019-05-23T01:31:50.473Z,4.00
2019-05-23T01:32:50.448Z,4.00
2019-05-23T01:33:50.427Z,4.00
2019-05-23T01:34:50.409Z,4.00
2019-05-23T01:35:50.388Z,4.00
2019-05-23T01:36:50.367Z,4.00
2019-05-23T01:37:50.344Z,4.00
2019-05-23T01:38:50.323Z,4.00
2019-05-23T01:39:50.304Z,4.00
2019-05-23T01:40:50.281Z,4.00
2019-05-23T01:41:50.262Z,4.00
2019-05-23T01:42:50.252Z,4.00
2019-05-23T01:43:50.217Z,4.00
2019-05-23T01:44:50.206Z,4.00
2019-05-23T01:45:50.175Z,4.00
2019-05-23T01:46:50.156Z,4.00
2019-05-23T01:47:50.153Z,4.00
2019-05-23T01:48:50.118Z,4.00
2019-05-23T01:49:50.092Z,4.00
2019-05-23T01:50:50.070Z,4.00
2019-05-23T01:51:50.049Z,4.00
2019-05-23T01:52:50.029Z,4.00
2019-05-23T01:53:50.015Z,4.00
2019-05-23T01:54:50.003Z,4.00
2019-05-23T01:55:49.963Z,4.00
2019-05-23T01:56:49.956Z,4.00
2019-05-23T01:57:49.924Z,4.00
2019-05-23T01:58:49.901Z,4.00
2019-05-23T02:00:07.822Z,4.00
2019-05-23T02:00:49.870Z,4.00
2019-05-23T02:01:49.844Z,4.00
2019-05-23T02:02:49.817Z,4.00
2019-05-23T02:03:49.796Z,4.00
2019-05-23T02:04:49.829Z,4.00
2019-05-23T02:05:49.753Z,4.00
2019-05-23T02:06:49.751Z,4.00
2019-05-23T02:07:49.708Z,4.00
2019-05-23T02:08:49.693Z,4.00
2019-05-23T02:09:49.671Z,4.00
2019-05-23T02:10:49.647Z,4.00
2019-05-23T02:11:49.639Z,4.00
2019-05-23T02:12:49.603Z,4.00
2019-05-23T02:13:50.189Z,4.00
2019-05-23T02:14:49.564Z,4.00
2019-05-23T02:23:05.337Z,4.00
2019-05-23T02:24:05.308Z,8.00
2019-05-23T02:25:05.486Z,8.00
2019-05-23T02:26:05.679Z,8.00
2019-05-23T02:27:06.655Z,8.00
2019-05-23T02:29:04.459Z,8.00
2019-05-23T02:32:42.561Z,4.00
2019-05-23T02:33:42.532Z,4.00
2019-05-23T02:34:42.503Z,4.00
2019-05-23T02:35:42.481Z,4.00
2019-05-23T02:36:42.518Z,4.00
2019-05-23T02:37:42.436Z,4.00
2019-05-23T02:38:42.415Z,4.00
2019-05-23T02:39:42.394Z,4.00
2019-05-23T02:40:42.371Z,4.00
2019-05-23T02:41:42.349Z,4.00
2019-05-23T02:42:42.334Z,4.00
2019-05-23T02:43:42.305Z,8.00
2019-05-23T02:44:42.289Z,8.00
2019-05-23T02:45:42.270Z,8.00
2019-05-23T02:46:42.239Z,8.00
2019-05-23T02:47:42.232Z,8.00
2019-05-23T02:48:42.204Z,4.00
2019-05-23T02:49:42.173Z,8.00
2019-05-23T02:50:42.152Z,8.00
2019-05-23T02:51:42.130Z,8.00
2019-05-23T02:52:42.109Z,8.00
2019-05-23T02:53:42.095Z,8.00
2019-05-23T02:54:42.065Z,12.00
2019-05-23T02:55:42.048Z,12.00
2019-05-23T02:56:42.037Z,16.00
2019-05-23T02:57:41.997Z,16.00
2019-05-23T02:58:41.977Z,16.00
2019-05-23T02:59:41.976Z,16.00
2019-05-23T03:00:53.473Z,20.00
2019-05-23T03:01:41.914Z,20.00
2019-05-23T03:02:41.888Z,20.00
2019-05-23T03:03:41.869Z,24.00
2019-05-23T03:04:41.850Z,24.00
2019-05-23T03:05:41.829Z,28.00
2019-05-23T03:06:41.803Z,28.00
2019-05-23T03:07:41.785Z,32.00
2019-05-23T03:08:41.776Z,36.00
2019-05-23T03:09:41.737Z,44.00
2019-05-23T03:10:41.717Z,48.00
2019-05-23T03:11:41.693Z,52.00
2019-05-23T03:12:41.671Z,56.00
2019-05-23T03:13:41.775Z,64.00
2019-05-23T03:14:41.628Z,72.00
2019-05-23T03:15:41.604Z,76.00
2019-05-23T03:16:41.587Z,84.00
2019-05-23T03:17:41.564Z,88.00
2019-05-23T03:18:41.540Z,100.00
2019-05-23T03:19:41.526Z,108.00
2019-05-23T03:20:41.497Z,116.00
2019-05-23T03:21:41.483Z,124.00
2019-05-23T03:22:41.452Z,132.00
2019-05-23T03:23:41.432Z,148.00
2019-05-23T03:24:41.411Z,160.00
2019-05-23T03:25:41.409Z,172.00
2019-05-23T03:26:41.369Z,188.00
2019-05-23T03:27:41.346Z,204.00
2019-05-23T03:28:41.322Z,220.00
2019-05-23T03:29:41.299Z,240.00
2019-05-23T03:30:41.282Z,260.00
2019-05-23T03:31:41.257Z,280.00
2019-05-23T03:32:41.243Z,300.00
2019-05-23T03:33:41.218Z,324.00
2019-05-23T03:34:41.191Z,348.00
2019-05-23T03:35:41.175Z,376.00
2019-05-23T03:36:41.156Z,408.00
2019-05-23T03:37:41.130Z,440.00
2019-05-23T03:38:41.108Z,472.00
2019-05-23T03:39:41.086Z,504.00
2019-05-23T03:40:41.058Z,540.00
2019-05-23T03:41:41.046Z,576.00
2019-05-23T03:42:41.016Z,612.00
2019-05-23T03:43:40.995Z,652.00
2019-05-23T03:44:40.977Z,692.00
2019-05-23T03:45:40.949Z,732.00
2019-05-23T03:46:40.928Z,776.00
2019-05-23T03:47:40.904Z,824.00
2019-05-23T03:48:40.883Z,872.00
2019-05-23T03:49:40.863Z,920.00
2019-05-23T03:50:40.844Z,972.00
2019-05-23T03:51:40.817Z,1028.00
2019-05-23T03:52:40.797Z,1080.00
2019-05-23T03:53:40.791Z,1128.00
2019-05-23T03:54:40.753Z,1176.00
2019-05-23T03:55:40.729Z,1228.00
2019-05-23T03:56:40.708Z,1272.00
2019-05-23T03:57:40.702Z,1328.00
2019-05-23T03:58:40.674Z,1380.00
2019-05-23T03:59:40.655Z,1440.00
2019-05-23T04:00:40.621Z,1504.00
2019-05-23T04:01:47.814Z,1564.00
2019-05-23T04:02:40.579Z,1632.00
2019-05-23T04:03:40.779Z,1688.00
2019-05-23T04:04:40.534Z,1736.00
2019-05-23T04:05:40.510Z,1780.00
2019-05-23T04:06:40.513Z,1828.00
2019-05-23T04:07:40.475Z,1880.00
2019-05-23T04:08:40.447Z,1912.00
2019-05-23T04:09:40.426Z,1944.00
2019-05-23T04:10:40.411Z,1964.00
2019-05-23T04:11:40.383Z,1984.00
2019-05-23T04:12:40.373Z,2036.00
2019-05-23T04:13:40.339Z,2108.00
2019-05-23T04:14:40.320Z,2160.00
2019-05-23T04:15:40.294Z,2196.00
2019-05-23T04:16:40.274Z,2224.00
2019-05-23T04:17:40.249Z,2272.00
2019-05-23T04:18:40.232Z,2336.00
2019-05-23T04:19:40.205Z,2392.00
2019-05-23T04:20:40.186Z,2416.00
2019-05-23T04:21:40.170Z,2420.00
2019-05-23T04:22:40.140Z,2424.00
2019-05-23T04:23:40.136Z,2444.00
2019-05-23T04:24:40.098Z,2464.00
2019-05-23T04:25:40.076Z,2460.00
2019-05-23T04:26:40.059Z,2480.00
2019-05-23T04:27:40.059Z,2544.00
2019-05-23T04:28:40.016Z,2632.00
2019-05-23T04:29:39.989Z,2660.00
2019-05-23T04:30:39.969Z,2620.00
2019-05-23T04:31:39.959Z,2576.00
2019-05-23T04:32:39.928Z,2520.00
2019-05-23T04:33:39.912Z,2480.00
2019-05-23T04:34:39.891Z,2456.00
2019-05-23T04:35:39.865Z,2420.00
2019-05-23T04:36:39.838Z,2400.00
2019-05-23T04:37:39.817Z,2420.00
2019-05-23T04:38:39.795Z,2464.00
2019-05-23T04:39:39.778Z,2500.00
2019-05-23T04:40:39.770Z,2524.00
2019-05-23T04:41:39.733Z,2532.00
2019-05-23T04:42:39.715Z,2540.00
2019-05-23T04:43:39.689Z,2556.00
2019-05-23T04:44:43.798Z,2596.00
2019-05-23T04:45:39.648Z,2636.00
2019-05-23T04:46:39.623Z,2704.00
2019-05-23T04:47:39.603Z,2772.00
2019-05-23T04:48:39.583Z,2828.00
2019-05-23T04:49:39.559Z,2880.00
2019-05-23T04:50:39.569Z,2912.00
2019-05-23T04:51:39.597Z,2944.00
2019-05-23T04:52:39.499Z,2972.00
2019-05-23T04:53:39.474Z,3000.00
2019-05-23T04:54:39.452Z,3012.00
2019-05-23T04:55:39.469Z,3068.00
2019-05-23T04:56:39.412Z,3120.00
2019-05-23T04:57:39.390Z,3192.00
2019-05-23T04:58:39.381Z,3264.00
2019-05-23T04:59:39.351Z,3332.00
2019-05-23T05:00:39.333Z,3412.00
2019-05-23T05:01:39.303Z,3476.00
2019-05-23T05:02:39.293Z,3548.00
2019-05-23T05:03:39.263Z,3604.00
2019-05-23T05:04:39.313Z,3688.00
2019-05-23T05:05:39.291Z,3788.00
2019-05-23T05:06:39.199Z,3860.00
2019-05-23T05:07:39.175Z,3916.00
2019-05-23T05:08:39.159Z,3984.00
2019-05-23T05:09:39.166Z,4060.00
2019-05-23T05:10:39.118Z,4140.00
2019-05-23T05:12:22.660Z,4224.00
2019-05-23T05:13:22.639Z,4320.00
2019-05-23T05:14:22.666Z,4424.00
2019-05-23T05:15:22.597Z,4604.00
2019-05-23T05:16:22.573Z,4752.00
2019-05-23T05:17:22.560Z,4856.00
2019-05-23T05:18:22.530Z,4940.00
2019-05-23T05:19:22.570Z,5020.00
2019-05-23T05:20:22.582Z,5084.00
2019-05-23T05:21:22.469Z,5132.00
2019-05-23T05:22:22.452Z,5220.00
2019-05-23T05:23:22.426Z,5308.00
2019-05-23T05:24:22.405Z,5400.00
2019-05-23T05:25:22.384Z,5504.00
2019-05-23T05:26:22.367Z,5612.00
2019-05-23T05:27:22.342Z,5696.00
2019-05-23T05:28:22.322Z,5840.00
2019-05-23T05:29:22.297Z,6188.00
2019-05-23T05:30:22.278Z,6880.00
2019-05-23T05:31:22.260Z,16448.00
2019-05-23T05:32:22.243Z,29888.00
2019-05-23T05:33:22.214Z,34784.00
2019-05-23T05:34:22.194Z,36128.00
2019-05-23T05:35:22.176Z,35776.00
2019-05-23T05:36:22.160Z,37056.00
2019-05-23T05:37:22.158Z,40352.00
2019-05-23T05:38:22.125Z,41632.00
2019-05-23T05:39:22.100Z,42560.00
2019-05-23T05:40:22.081Z,40928.00
2019-05-23T05:41:22.059Z,36192.00
2019-05-23T05:42:22.051Z,38592.00
2019-05-23T05:43:22.033Z,42336.00
2019-05-23T05:44:22.336Z,41920.00
2019-05-23T05:45:21.987Z,40928.00
2019-05-23T05:46:21.979Z,42496.00
2019-05-23T05:47:21.957Z,45216.00
2019-05-23T05:48:21.951Z,46688.00
2019-05-23T05:49:21.919Z,45568.00
2019-05-23T05:50:21.917Z,44224.00
2019-05-23T05:51:21.891Z,37856.00
2019-05-23T05:53:21.423Z,38624.00
2019-05-23T05:54:21.413Z,41184.00
2019-05-23T05:55:54.605Z,31968.00
2019-05-23T05:56:54.595Z,26272.00
2019-05-23T05:57:21.373Z,38880.00
2019-05-23T05:58:21.365Z,50112.00
2019-05-23T05:59:21.356Z,49504.00
2019-05-23T06:00:21.332Z,50816.00
2019-05-23T06:01:33.452Z,52096.00
2019-05-23T06:02:21.294Z,52800.00
2019-05-23T06:03:21.280Z,52800.00
2019-05-23T06:04:21.266Z,50048.00
2019-05-23T06:05:21.255Z,48896.00
2019-05-23T06:06:21.247Z,49664.00
2019-05-23T06:07:21.235Z,51648.00
2019-05-23T06:08:21.218Z,50464.00
2019-05-23T06:09:21.214Z,46720.00
2019-05-23T06:10:21.284Z,41024.00
2019-05-23T06:11:21.183Z,33472.00
2019-05-23T06:12:21.165Z,26592.00
2019-05-23T06:13:21.165Z,16352.00
2019-05-23T06:14:21.139Z,22240.00
2019-05-23T06:15:21.129Z,37504.00
2019-05-23T06:16:21.121Z,41248.00
2019-05-23T06:17:23.950Z,37312.00
2019-05-23T06:18:21.095Z,41696.00
2019-05-23T06:19:21.080Z,46144.00
2019-05-23T06:20:21.074Z,43840.00
2019-05-23T06:21:21.063Z,40480.00
2019-05-23T06:22:21.049Z,43424.00
2019-05-23T06:23:21.036Z,45248.00
2019-05-23T06:24:39.252Z,50464.00
2019-05-23T06:25:21.018Z,52832.00
2019-05-23T06:26:21.011Z,52864.00
2019-05-23T06:27:20.994Z,50368.00
2019-05-23T06:28:20.993Z,47136.00
2019-05-23T06:29:20.993Z,44896.00
2019-05-23T06:30:20.973Z,44896.00
2019-05-23T06:31:20.994Z,48736.00
2019-05-23T06:32:20.949Z,53440.00
2019-05-23T06:33:23.912Z,51008.00
2019-05-23T06:34:20.936Z,38432.00
2019-05-23T06:35:20.919Z,57120.00
2019-05-23T06:36:20.919Z,57600.00
2019-05-23T06:37:20.905Z,56512.00
2019-05-23T06:38:20.895Z,55392.00
2019-05-23T06:39:20.886Z,55712.00
2019-05-23T06:40:20.936Z,58400.00
2019-05-23T06:41:20.881Z,60960.00
2019-05-23T06:42:20.853Z,64608.00
2019-05-23T06:43:20.858Z,66816.00
2019-05-23T06:44:20.853Z,62624.00
2019-05-23T06:45:20.826Z,52384.00
2019-05-23T06:46:20.817Z,47936.00
2019-05-23T06:47:20.808Z,45952.00
2019-05-23T06:48:20.875Z,45504.00
2019-05-23T06:49:20.798Z,46592.00
2019-05-23T06:50:20.787Z,46528.00
2019-05-23T06:51:21.785Z,47136.00
2019-05-23T06:52:20.763Z,41696.00
2019-05-23T06:53:20.768Z,18336.00
2019-05-23T06:54:20.750Z,17312.00
2019-05-23T06:55:20.747Z,13592.00
2019-05-23T06:56:20.745Z,12648.00
2019-05-23T06:57:20.732Z,13952.00
2019-05-23T06:58:20.974Z,12760.00
2019-05-23T06:59:20.740Z,27872.00
2019-05-23T07:00:20.698Z,33440.00
2019-05-23T07:01:20.690Z,29824.00
2019-05-23T07:02:20.684Z,35360.00
2019-05-23T07:03:20.675Z,32608.00
2019-05-23T07:04:20.673Z,27904.00
2019-05-23T07:05:20.654Z,26368.00
2019-05-23T07:06:20.652Z,22848.00
2019-05-23T07:07:20.636Z,25184.00
2019-05-23T07:08:20.631Z,31200.00
2019-05-23T07:09:20.693Z,27328.00
2019-05-23T07:10:20.608Z,40544.00
2019-05-23T07:11:20.597Z,39712.00
2019-05-23T07:12:20.588Z,38752.00
2019-05-23T07:13:20.585Z,33696.00
2019-05-23T07:14:20.578Z,34912.00
2019-05-23T07:15:20.560Z,30080.00
2019-05-23T07:16:20.550Z,39136.00
2019-05-23T07:17:20.561Z,20288.00
2019-05-23T07:18:20.530Z,39520.00
2019-05-23T07:19:20.536Z,12080.00
2019-05-23T07:20:20.512Z,16356.00
2019-05-23T07:21:20.496Z,17024.00
2019-05-23T07:22:20.486Z,18464.00
2019-05-23T07:23:20.525Z,19392.00
2019-05-23T07:24:20.463Z,26592.00
2019-05-23T07:25:20.461Z,24512.00
2019-05-23T07:26:20.441Z,25632.00
2019-05-23T07:27:20.486Z,14012.00
2019-05-23T07:28:20.426Z,11212.00
2019-05-23T07:29:20.411Z,12212.00
2019-05-23T07:30:21.671Z,11124.00
2019-05-23T07:31:20.403Z,11244.00
2019-05-23T07:32:20.374Z,11604.00
2019-05-23T07:33:20.363Z,13912.00
2019-05-23T07:34:20.358Z,13468.00
2019-05-23T07:35:20.338Z,11196.00
2019-05-23T07:36:20.330Z,11300.00
2019-05-23T07:37:20.334Z,11760.00
2019-05-23T07:38:20.296Z,11436.00
2019-05-23T07:39:20.284Z,11516.00
2019-05-23T07:40:20.273Z,12776.00
2019-05-23T07:41:20.259Z,30272.00
2019-05-23T07:42:20.263Z,12516.00
2019-05-23T07:43:20.233Z,13204.00
2019-05-23T07:44:20.222Z,25184.00
2019-05-23T07:45:20.215Z,49824.00
2019-05-23T07:46:20.197Z,69920.00
2019-05-23T07:47:20.181Z,31232.00
2019-05-23T07:48:20.185Z,66560.00
2019-05-23T07:49:20.158Z,57664.00
2019-05-23T07:50:20.150Z,56352.00
2019-05-23T07:51:20.130Z,53600.00
2019-05-23T07:52:20.115Z,19232.00
2019-05-23T07:53:20.103Z,19072.00
2019-05-23T07:54:20.089Z,13212.00
2019-05-23T07:55:20.129Z,11960.00
2019-05-23T07:56:20.075Z,12084.00
2019-05-23T07:57:20.114Z,14616.00
2019-05-23T07:58:20.047Z,16316.00
2019-05-23T07:59:20.032Z,11788.00
2019-05-23T08:00:20.030Z,35104.00
2019-05-23T08:01:20.066Z,20864.00
2019-05-23T08:02:24.880Z,12200.00
2019-05-23T08:03:19.981Z,11564.00
2019-05-23T08:04:22.341Z,11524.00
2019-05-23T08:05:20.015Z,11468.00
2019-05-23T08:06:19.946Z,11348.00
2019-05-23T08:07:19.947Z,11372.00
2019-05-23T08:08:19.937Z,14464.00
2019-05-23T08:09:19.910Z,14648.00
2019-05-23T08:10:32.957Z,13820.00
2019-05-23T08:11:19.883Z,15396.00
2019-05-23T08:12:19.870Z,12480.00
2019-05-23T08:13:19.862Z,11088.00
2019-05-23T08:14:19.842Z,11016.00
2019-05-23T08:15:19.890Z,11076.00
2019-05-23T08:16:19.822Z,11196.00
2019-05-23T08:17:19.817Z,11324.00
2019-05-23T08:18:19.802Z,11464.00
2019-05-23T08:19:19.941Z,11488.00
2019-05-23T08:20:19.770Z,11452.00
2019-05-23T08:21:19.760Z,11440.00
2019-05-23T08:22:19.744Z,11684.00
2019-05-23T08:23:19.724Z,11916.00
2019-05-23T08:24:19.711Z,12040.00
2019-05-23T08:25:19.701Z,12056.00
2019-05-23T08:26:19.711Z,12168.00
2019-05-23T08:27:19.679Z,12100.00
2019-05-23T08:28:19.660Z,12256.00
2019-05-23T08:29:25.991Z,12900.00
2019-05-23T08:30:19.630Z,16000.00
2019-05-23T08:31:19.623Z,12580.00
2019-05-23T08:32:19.603Z,12740.00
2019-05-23T08:33:19.595Z,11120.00
2019-05-23T08:34:19.580Z,19456.00
2019-05-23T08:35:19.567Z,12504.00
2019-05-23T08:36:19.544Z,24128.00
2019-05-23T08:37:19.532Z,16412.00
2019-05-23T08:38:19.523Z,16512.00
2019-05-23T08:39:19.561Z,15104.00
2019-05-23T08:40:19.502Z,19296.00
2019-05-23T08:41:19.482Z,26400.00
2019-05-23T08:42:19.473Z,15632.00
2019-05-23T08:43:19.521Z,17236.00
2019-05-23T08:44:19.435Z,12440.00
2019-05-23T08:45:19.430Z,12264.00
2019-05-23T08:46:19.408Z,14492.00
2019-05-23T08:47:19.396Z,12576.00
2019-05-23T08:48:19.375Z,12500.00
2019-05-23T08:49:19.370Z,12444.00
2019-05-23T08:50:19.349Z,12492.00
2019-05-23T08:51:19.345Z,11956.00
2019-05-23T08:52:19.325Z,11804.00
2019-05-23T08:53:19.308Z,11620.00
2019-05-23T08:54:19.296Z,11744.00
2019-05-23T08:55:19.287Z,11908.00
2019-05-23T08:56:19.873Z,12448.00
2019-05-23T08:57:19.256Z,13344.00
2019-05-23T08:58:19.272Z,13888.00
2019-05-23T08:59:19.232Z,14104.00
2019-05-23T09:00:19.298Z,13680.00
2019-05-23T09:01:19.201Z,13096.00
2019-05-23T09:02:19.217Z,12436.00
2019-05-23T09:03:19.193Z,12172.00
2019-05-23T09:04:19.164Z,11824.00
2019-05-23T09:05:19.146Z,11832.00
2019-05-23T09:06:19.160Z,11864.00
2019-05-23T09:07:19.125Z,12180.00
2019-05-23T09:08:19.115Z,12032.00
2019-05-23T09:09:29.244Z,12324.00
2019-05-23T09:10:19.082Z,12528.00
2019-05-23T09:11:19.117Z,12428.00
2019-05-23T09:12:19.179Z,22784.00
2019-05-23T09:13:19.038Z,25696.00
2019-05-23T09:14:19.023Z,56640.00
2019-05-23T09:15:19.027Z,16128.00
2019-05-23T09:16:19.002Z,15476.00
2019-05-23T09:17:18.991Z,18400.00
2019-05-23T09:18:19.075Z,15056.00
2019-05-23T09:19:18.965Z,12920.00
2019-05-23T09:20:18.948Z,47712.00
2019-05-23T09:21:18.931Z,14532.00
2019-05-23T09:22:18.921Z,14940.00
2019-05-23T09:23:18.908Z,29792.00
2019-05-23T09:24:18.892Z,31648.00
2019-05-23T09:25:18.894Z,20192.00
2019-05-23T09:26:18.908Z,13772.00
2019-05-23T09:27:18.857Z,15300.00
2019-05-23T09:28:18.853Z,15052.00
2019-05-23T09:29:19.464Z,14516.00
2019-05-23T09:30:18.822Z,18784.00
2019-05-23T09:31:18.814Z,25472.00
2019-05-23T09:32:19.206Z,21248.00
2019-05-23T09:33:18.820Z,21088.00
2019-05-23T09:34:18.781Z,33216.00
2019-05-23T09:35:21.290Z,44320.00
2019-05-23T09:36:18.749Z,72800.00
2019-05-23T09:37:22.373Z,79840.00
2019-05-23T09:38:18.732Z,22016.00
2019-05-23T09:39:18.780Z,67712.00
2019-05-23T09:40:18.703Z,79200.00
2019-05-23T09:41:18.697Z,54496.00
2019-05-23T09:42:18.687Z,17952.00
2019-05-23T09:43:18.682Z,23840.00
2019-05-23T09:44:18.661Z,19072.00
2019-05-23T09:45:18.652Z,29760.00
2019-05-23T09:46:18.653Z,25024.00
2019-05-23T09:47:18.631Z,70656.00
2019-05-23T09:48:18.623Z,50784.00
2019-05-23T09:49:18.621Z,88576.00
2019-05-23T09:50:18.614Z,91072.00
2019-05-23T09:51:18.593Z,76480.00
2019-05-23T09:52:18.583Z,57440.00
2019-05-23T09:53:18.583Z,87648.00
2019-05-23T09:54:18.569Z,85312.00
2019-05-23T09:55:18.567Z,25824.00
2019-05-23T09:56:21.239Z,26560.00
2019-05-23T09:57:18.558Z,21568.00
2019-05-23T09:58:18.693Z,21664.00
2019-05-23T09:59:18.938Z,20256.00
2019-05-23T10:00:18.520Z,47680.00
2019-05-23T10:01:18.648Z,45248.00
2019-05-23T10:02:18.514Z,73184.00
2019-05-23T10:03:18.710Z,92288.00
2019-05-23T10:04:18.500Z,101888.00
2019-05-23T10:05:18.755Z,107648.00
2019-05-23T10:06:19.089Z,108992.00
2019-05-23T10:07:18.487Z,110752.00
2019-05-23T10:08:18.491Z,108288.00
2019-05-23T10:09:18.461Z,104864.00
2019-05-23T10:10:18.864Z,104064.00
2019-05-23T10:11:18.464Z,108096.00
2019-05-23T10:12:22.166Z,108096.00
2019-05-23T10:13:18.458Z,107296.00
2019-05-23T10:14:18.444Z,105472.00
2019-05-23T10:15:18.443Z,98272.00
2019-05-23T10:16:18.446Z,94144.00
2019-05-23T10:17:18.456Z,89472.00
2019-05-23T10:18:18.435Z,89600.00
2019-05-23T10:19:18.439Z,92000.00
2019-05-23T10:20:18.442Z,92928.00
2019-05-23T10:21:18.434Z,91904.00
2019-05-23T10:22:18.432Z,87776.00
2019-05-23T10:23:18.477Z,87488.00
2019-05-23T10:24:18.430Z,85600.00
2019-05-23T10:25:18.440Z,91360.00
2019-05-23T10:26:18.437Z,87264.00
2019-05-23T10:27:18.469Z,77920.00
2019-05-23T10:28:18.462Z,75328.00
2019-05-23T10:29:18.516Z,71520.00
2019-05-23T10:30:18.433Z,73856.00
2019-05-23T10:31:18.460Z,80576.00
2019-05-23T10:32:18.433Z,89792.00
2019-05-23T10:33:18.440Z,97504.00
2019-05-23T10:34:18.433Z,96384.00
2019-05-23T10:35:18.435Z,20736.00
2019-05-23T10:36:18.435Z,17240.00
2019-05-23T10:37:18.442Z,14116.00
2019-05-23T10:38:18.435Z,14016.00
2019-05-23T10:39:18.440Z,14328.00
2019-05-23T10:40:18.435Z,16464.00
2019-05-23T10:41:18.447Z,79968.00
2019-05-23T10:42:18.441Z,19168.00
2019-05-23T10:43:18.431Z,21856.00
2019-05-23T10:44:18.438Z,98368.00
2019-05-23T10:45:18.433Z,84224.00
2019-05-23T10:46:18.439Z,86528.00
2019-05-23T10:47:18.434Z,79744.00
2019-05-23T10:48:18.419Z,89184.00
2019-05-23T10:49:18.423Z,76352.00
2019-05-23T10:50:18.428Z,81856.00
2019-05-23T10:51:18.415Z,74528.00
2019-05-23T10:52:18.421Z,84448.00
2019-05-23T10:53:18.442Z,92960.00
2019-05-23T10:54:18.435Z,91776.00
2019-05-23T10:55:18.413Z,87200.00
2019-05-23T10:56:20.636Z,82208.00
2019-05-23T10:57:18.417Z,81792.00
2019-05-23T10:58:18.406Z,83680.00
2019-05-23T10:59:18.411Z,58784.00
2019-05-23T11:00:18.406Z,86848.00
2019-05-23T11:01:18.412Z,84064.00
2019-05-23T11:02:18.401Z,81504.00
2019-05-23T11:03:18.402Z,81024.00
2019-05-23T11:04:18.425Z,82304.00
2019-05-23T11:05:18.407Z,77632.00
2019-05-23T11:06:18.397Z,79840.00
2019-05-23T11:07:18.400Z,78496.00
2019-05-23T11:08:18.419Z,74848.00
2019-05-23T11:09:18.400Z,73184.00
2019-05-23T11:10:18.402Z,75872.00
2019-05-23T11:11:18.409Z,70848.00
2019-05-23T11:12:18.412Z,76288.00
2019-05-23T11:13:18.423Z,79904.00
2019-05-23T11:14:18.438Z,81312.00
2019-05-23T11:15:18.460Z,76192.00
2019-05-23T11:16:18.408Z,74784.00
2019-05-23T11:17:18.400Z,73984.00
2019-05-23T11:18:18.408Z,69792.00
2019-05-23T11:19:18.411Z,70016.00
2019-05-23T11:20:18.400Z,69888.00
2019-05-23T11:21:18.407Z,71616.00
2019-05-23T11:22:18.411Z,70688.00
2019-05-23T11:23:18.405Z,71616.00
2019-05-23T11:24:18.409Z,79392.00
2019-05-23T11:25:18.432Z,81088.00
2019-05-23T11:26:18.420Z,79296.00
2019-05-23T11:27:18.409Z,73888.00
2019-05-23T11:28:18.408Z,68032.00
2019-05-23T11:29:18.445Z,60544.00
2019-05-23T11:30:18.413Z,65088.00
2019-05-23T11:31:18.409Z,65728.00
2019-05-23T11:32:20.160Z,72160.00
2019-05-23T11:33:18.406Z,75232.00
2019-05-23T11:34:18.410Z,71968.00
2019-05-23T11:35:18.409Z,69760.00
2019-05-23T11:36:33.712Z,73952.00
2019-05-23T11:37:18.456Z,79072.00
2019-05-23T11:38:18.414Z,80768.00
2019-05-23T11:39:18.403Z,78720.00
2019-05-23T11:40:18.409Z,76288.00
2019-05-23T11:41:18.427Z,71520.00
2019-05-23T11:42:18.404Z,69632.00
2019-05-23T11:43:18.401Z,64224.00
2019-05-23T11:44:18.403Z,42720.00
2019-05-23T11:45:18.408Z,21760.00
2019-05-23T11:46:18.405Z,15028.00
2019-05-23T11:47:18.397Z,13708.00
2019-05-23T11:48:21.017Z,13172.00
2019-05-23T11:49:18.402Z,12508.00
2019-05-23T11:50:18.387Z,12356.00
2019-05-23T11:51:18.386Z,12356.00
2019-05-23T11:52:18.396Z,12276.00
2019-05-23T11:53:18.400Z,12180.00
2019-05-23T11:54:18.376Z,12100.00
2019-05-23T11:55:18.380Z,11876.00
2019-05-23T11:56:18.364Z,11780.00
2019-05-23T11:57:18.418Z,11672.00
2019-05-23T11:58:18.356Z,11568.00
2019-05-23T11:59:18.350Z,11552.00
2019-05-23T12:00:18.757Z,11684.00
2019-05-23T12:01:21.280Z,11868.00
2019-05-23T12:02:18.330Z,12292.00
2019-05-23T12:03:18.347Z,12268.00
2019-05-23T12:04:18.320Z,12312.00
2019-05-23T12:05:18.314Z,12264.00
2019-05-23T12:06:18.304Z,12032.00
2019-05-23T12:07:18.295Z,11596.00
2019-05-23T12:08:18.292Z,11280.00
2019-05-23T12:09:18.282Z,11504.00
2019-05-23T12:10:18.348Z,11832.00
2019-05-23T12:11:18.263Z,11848.00
2019-05-23T12:12:18.257Z,11672.00
2019-05-23T12:13:18.246Z,11800.00
2019-05-23T12:15:32.521Z,13000.00
2019-05-23T12:16:32.558Z,13744.00
2019-05-23T12:17:32.512Z,14172.00
2019-05-23T12:18:32.601Z,14632.00
2019-05-23T12:19:32.604Z,15380.00
2019-05-23T12:20:32.489Z,15760.00
2019-05-23T12:21:32.468Z,16204.00
2019-05-23T12:22:32.481Z,17056.00
2019-05-23T12:23:32.451Z,17248.00
2019-05-23T12:24:35.351Z,17216.00
2019-05-23T12:25:32.439Z,16644.00